Time;durP1;ratioP1;P1;durP2;ratioP2;P2;SDS_P1;SDS_P2;PMS_P1;PMS_P2;Temp;Humidity;BMP_temperature;BMP_pressure;BME280_temperature;BME280_humidity;BME280_pressure;Samples;Min_cycle;Max_cycle;Signal;HPM_P1;HPM_P2
2022/10/06 00:02:14;;;;;;;;;;;20.40;68.30;;;;;;4993090;28;20042;-61
2022/10/06 00:04:40;;;;;;;1.23;0.60;;;20.30;68.20;;;;;;4992112;28;19926;-61
2022/10/06 00:07:05;;;;;;;1.67;0.60;;;20.40;68.30;;;;;;4993029;28;20050;-61
2022/10/06 00:09:31;;;;;;;1.77;0.60;;;20.30;68.30;;;;;;4992802;28;20052;-61
2022/10/06 00:11:57;;;;;;;2.25;0.70;;;20.40;68.30;;;;;;4992242;28;20093;-61
2022/10/06 00:14:23;;;;;;;2.40;0.63;;;20.40;68.30;;;;;;4992933;28;20490;-61
2022/10/06 00:16:48;;;;;;;2.15;0.73;;;20.30;68.20;;;;;;4992991;28;20045;-61
2022/10/06 00:19:14;;;;;;;2.35;0.60;;;20.30;68.20;;;;;;4991765;28;20076;-61
2022/10/06 00:21:39;;;;;;;1.50;0.55;;;20.40;68.30;;;;;;4992776;28;20141;-61
2022/10/06 00:24:05;;;;;;;2.15;0.70;;;20.30;68.20;;;;;;4993031;28;20081;-61
2022/10/06 00:26:31;;;;;;;2.83;0.57;;;20.40;68.30;;;;;;4991997;28;20062;-61
2022/10/06 00:28:56;;;;;;;1.35;0.70;;;20.30;68.20;;;;;;4993080;28;20050;-61
2022/10/06 00:31:22;;;;;;;2.25;0.68;;;20.40;68.30;;;;;;4992712;28;20046;-61
2022/10/06 00:33:48;;;;;;;1.95;0.50;;;20.40;68.30;;;;;;4991853;28;20038;-61
2022/10/06 00:36:14;;;;;;;2.80;0.70;;;20.40;68.30;;;;;;4992700;28;20050;-60
2022/10/06 00:38:39;;;;;;;3.03;0.70;;;20.40;68.30;;;;;;4992712;28;20053;-61
2022/10/06 00:41:05;;;;;;;1.88;0.60;;;20.30;68.20;;;;;;4992059;28;20081;-61
2022/10/06 00:43:47;;;;;;;1.70;0.60;;;20.40;68.30;;;;;;4992822;28;20129;-61
2022/10/06 00:46:27;;;;;;;2.53;0.68;;;20.40;68.20;;;;;;4991584;28;20446;-61
2022/10/06 00:49:09;;;;;;;2.00;0.63;;;20.30;68.20;;;;;;4992568;28;20067;-61
2022/10/06 00:51:35;;;;;;;1.85;0.52;;;20.30;68.20;;;;;;4991820;28;20066;-61
2022/10/06 00:54:00;;;;;;;2.08;0.43;;;20.30;68.20;;;;;;4994128;28;20073;-61
2022/10/06 00:56:26;;;;;;;2.65;0.60;;;20.30;68.20;;;;;;4994657;28;20081;-61
2022/10/06 00:58:52;;;;;;;1.75;0.50;;;20.30;68.20;;;;;;4996369;28;20054;-61
2022/10/06 01:01:17;;;;;;;2.35;0.50;;;20.30;68.20;;;;;;4995155;28;20371;-61
2022/10/06 01:03:48;;;;;;;1.80;0.50;;;20.30;68.20;;;;;;4996409;28;20104;-61
2022/10/06 01:06:14;;;;;;;2.05;0.50;;;20.30;68.20;;;;;;4978174;28;20050;-61
2022/10/06 01:08:39;;;;;;;2.45;0.60;;;20.30;68.20;;;;;;4995263;28;20057;-61
2022/10/06 01:11:08;;;;;;;1.70;0.50;;;20.30;68.10;;;;;;4996113;28;20117;-61
2022/10/06 01:13:34;;;;;;;2.33;0.50;;;20.30;68.10;;;;;;4996178;28;20148;-61
2022/10/06 01:16:26;;;;;;;1.25;0.50;;;20.30;68.10;;;;;;4995150;28;20569;-61
2022/10/06 01:18:52;;;;;;;2.03;0.50;;;20.30;68.10;;;;;;4975225;28;20054;-61
2022/10/06 01:21:38;;;;;;;1.80;0.55;;;20.30;68.20;;;;;;4993810;28;20039;-61
2022/10/06 01:24:04;;;;;;;1.33;0.60;;;20.30;68.10;;;;;;4994518;28;20133;-61
2022/10/06 01:26:30;;;;;;;2.25;0.60;;;20.30;68.10;;;;;;5010552;28;20133;-61
2022/10/06 01:28:56;;;;;;;1.17;0.50;;;20.30;68.20;;;;;;4994017;28;20050;-61
2022/10/06 01:31:21;;;;;;;1.33;0.50;;;20.30;68.10;;;;;;4994349;28;20034;-61
2022/10/06 01:33:51;;;;;;;0.93;0.60;;;20.30;68.10;;;;;;4995364;28;20474;-61
2022/10/06 01:36:17;;;;;;;1.27;0.60;;;20.30;68.10;;;;;;4994332;28;20445;-61
2022/10/06 01:38:42;;;;;;;2.63;0.75;;;20.20;68.00;;;;;;4995711;28;20034;-61
2022/10/06 01:41:08;;;;;;;1.38;0.60;;;20.20;68.00;;;;;;4995338;28;20073;-61
2022/10/06 01:43:33;;;;;;;1.95;0.73;;;20.30;68.10;;;;;;4994555;28;20057;-61
2022/10/06 01:45:59;;;;;;;1.83;0.70;;;20.20;68.00;;;;;;4995595;28;20042;-60
2022/10/06 01:48:25;;;;;;;0.93;0.65;;;20.20;68.10;;;;;;4994867;28;20367;-61
2022/10/06 01:50:51;;;;;;;1.05;0.50;;;20.20;68.10;;;;;;4994678;28;20053;-61
2022/10/06 01:53:16;;;;;;;1.95;0.60;;;20.20;68.10;;;;;;4995049;28;20050;-61
2022/10/06 01:55:42;;;;;;;1.73;0.57;;;20.20;68.10;;;;;;4995074;28;20129;-61
2022/10/06 01:58:09;;;;;;;1.38;0.50;;;20.20;68.10;;;;;;4994424;28;20042;-61
2022/10/06 02:00:34;;;;;;;1.55;0.40;;;20.20;68.00;;;;;;4995296;28;20054;-61
2022/10/06 02:03:00;;;;;;;1.67;0.50;;;20.20;68.10;;;;;;4995336;28;20133;-61
2022/10/06 02:05:25;;;;;;;0.75;0.40;;;20.20;68.00;;;;;;4993495;28;20548;-61
2022/10/06 02:07:51;;;;;;;2.55;0.50;;;20.20;68.00;;;;;;4994682;28;20042;-61
2022/10/06 02:10:17;;;;;;;1.13;0.40;;;20.20;68.60;;;;;;4994045;28;20046;-61
2022/10/06 02:12:42;;;;;;;1.63;0.50;;;20.20;68.00;;;;;;4995178;28;20046;-61
2022/10/06 02:15:09;;;;;;;2.53;0.50;;;20.20;68.00;;;;;;4994661;28;20385;-61
2022/10/06 02:17:36;;;;;;;1.23;0.50;;;20.20;68.00;;;;;;4994076;28;20078;-62
2022/10/06 02:20:04;;;;;;;1.83;0.50;;;20.20;68.10;;;;;;4994845;28;20101;-61
2022/10/06 02:22:30;;;;;;;0.90;0.40;;;20.20;68.00;;;;;;4994337;28;20097;-61
2022/10/06 02:24:55;;;;;;;1.02;0.40;;;20.20;68.00;;;;;;4994154;28;20474;-61
2022/10/06 02:27:21;;;;;;;1.77;0.60;;;20.20;68.00;;;;;;4994422;28;20042;-61
2022/10/06 02:29:48;;;;;;;1.45;0.40;;;20.20;68.00;;;;;;4994739;28;20117;-61
2022/10/06 02:32:13;;;;;;;1.35;0.40;;;20.20;68.00;;;;;;4993686;28;20050;-61
2022/10/06 02:34:39;;;;;;;1.67;0.30;;;20.20;68.00;;;;;;4994469;28;20053;-61
2022/10/06 02:37:04;;;;;;;0.70;0.30;;;20.20;68.00;;;;;;4994389;28;20050;-61
2022/10/06 02:39:30;;;;;;;1.35;0.45;;;20.20;68.00;;;;;;4993458;28;20038;-61
2022/10/06 02:41:55;;;;;;;1.33;0.40;;;20.20;68.00;;;;;;4994432;28;20074;-61
2022/10/06 02:44:23;;;;;;;1.67;0.40;;;20.20;68.00;;;;;;4993872;28;20130;-61
2022/10/06 02:46:50;;;;;;;1.17;0.40;;;20.20;68.00;;;;;;4993213;28;20553;-61
2022/10/06 02:49:15;;;;;;;1.30;0.32;;;20.10;67.90;;;;;;4993742;28;20043;-61
2022/10/06 02:51:41;;;;;;;2.97;0.52;;;20.20;68.00;;;;;;4994346;28;20375;-61
2022/10/06 02:54:06;;;;;;;2.17;0.63;;;20.20;68.00;;;;;;4993037;28;20108;-61
2022/10/06 02:56:32;;;;;;;1.20;0.40;;;20.10;67.90;;;;;;4994128;28;20059;-61
2022/10/06 02:58:57;;;;;;;1.63;0.50;;;20.10;67.90;;;;;;4976391;28;20150;-61
2022/10/06 03:01:24;;;;;;;1.75;0.50;;;20.10;68.00;;;;;;4992753;28;20042;-61
2022/10/06 03:03:50;;;;;;;0.63;0.32;;;20.10;67.90;;;;;;4994144;28;20046;-61
2022/10/06 03:06:22;;;;;;;1.42;0.52;;;20.10;67.90;;;;;;4993774;28;20049;-61
2022/10/06 03:08:56;;;;;;;2.33;0.75;;;20.10;67.90;;;;;;4993524;28;20104;-61
2022/10/06 03:11:29;;;;;;;1.45;0.40;;;20.10;68.00;;;;;;4993560;28;20121;-61
2022/10/06 03:13:55;;;;;;;1.55;0.40;;;20.10;67.90;;;;;;4992996;28;20057;-61
2022/10/06 03:16:26;;;;;;;1.05;0.30;;;20.10;68.00;;;;;;4992460;28;20105;-61
2022/10/06 03:18:52;;;;;;;1.23;0.40;;;20.10;67.90;;;;;;4993819;28;20057;-61
2022/10/06 03:21:19;;;;;;;1.55;0.47;;;20.10;68.00;;;;;;4992107;28;20557;-61
2022/10/06 03:23:47;;;;;;;1.85;0.52;;;20.10;68.00;;;;;;4993796;28;20046;-61
2022/10/06 03:26:14;;;;;;;2.08;0.38;;;20.10;67.90;;;;;;4993278;28;20046;-61
2022/10/06 03:28:39;;;;;;;1.30;0.50;;;20.10;68.00;;;;;;4992763;28;20046;-61
2022/10/06 03:31:05;;;;;;;1.70;0.40;;;20.10;67.90;;;;;;4993283;28;20581;-61
2022/10/06 03:33:32;;;;;;;1.27;0.38;;;20.10;68.50;;;;;;4993173;28;20039;-61
2022/10/06 03:36:19;;;;;;;1.67;0.40;;;20.10;68.00;;;;;;4992675;28;20046;-61
2022/10/06 03:38:44;;;;;;;4.33;0.57;;;20.00;67.80;;;;;;4993774;28;20049;-61
2022/10/06 03:41:15;;;;;;;1.70;0.30;;;20.00;67.90;;;;;;4992983;28;20046;-61
2022/10/06 03:43:44;;;;;;;1.02;0.30;;;20.00;67.90;;;;;;4992738;28;20081;-61
2022/10/06 03:46:11;;;;;;;1.83;0.40;;;20.00;68.50;;;;;;4992857;28;20042;-61
2022/10/06 03:48:36;;;;;;;1.65;0.52;;;20.00;67.90;;;;;;5007920;28;20114;-61
2022/10/06 03:51:04;;;;;;;1.55;0.40;;;20.00;67.80;;;;;;4992974;28;20054;-61
2022/10/06 03:53:29;;;;;;;2.13;0.40;;;20.00;67.70;;;;;;4992747;28;20046;-61
2022/10/06 03:56:09;;;;;;;0.57;0.28;;;20.00;67.70;;;;;;4992512;28;20463;-61
2022/10/06 03:58:36;;;;;;;2.15;0.40;;;20.00;67.70;;;;;;4993269;28;20565;-61
2022/10/06 04:01:03;;;;;;;1.98;0.30;;;20.00;67.70;;;;;;4993089;28;20046;-61
2022/10/06 04:03:28;;;;;;;1.95;0.40;;;20.00;67.70;;;;;;4992038;28;20038;-61
2022/10/06 04:05:55;;;;;;;1.85;0.45;;;20.00;67.70;;;;;;4974763;28;20051;-61
2022/10/06 04:08:21;;;;;;;2.28;0.45;;;20.00;67.70;;;;;;4992422;28;20042;-61
2022/10/06 04:10:46;;;;;;;1.63;0.40;;;20.00;67.70;;;;;;4992342;28;20046;-61
2022/10/06 04:13:15;;;;;;;3.60;0.50;;;20.00;67.70;;;;;;4992955;28;20397;-61
2022/10/06 04:15:40;;;;;;;3.03;0.50;;;20.00;67.70;;;;;;4992881;28;20498;-61
2022/10/06 04:18:06;;;;;;;2.78;0.50;;;20.00;67.70;;;;;;4992001;28;20038;-61
2022/10/06 04:20:32;;;;;;;1.52;0.40;;;20.00;67.70;;;;;;4992969;28;20497;-61
2022/10/06 04:22:57;;;;;;;2.17;0.60;;;20.00;67.70;;;;;;4992991;28;20045;-61
2022/10/06 04:25:23;;;;;;;1.23;0.40;;;20.00;67.70;;;;;;4991923;28;20042;-61
2022/10/06 04:27:48;;;;;;;1.95;0.40;;;20.00;67.70;;;;;;4995177;28;20039;-61
2022/10/06 04:30:14;;;;;;;2.38;0.55;;;20.00;67.70;;;;;;4996273;28;20050;-61
2022/10/06 04:32:39;;;;;;;1.70;0.57;;;20.00;67.70;;;;;;4996034;28;20053;-61
2022/10/06 04:35:05;;;;;;;4.40;0.50;;;20.00;67.70;;;;;;4996623;28;20048;-61
2022/10/06 04:37:31;;;;;;;0.65;0.30;;;20.00;67.70;;;;;;4996375;28;20129;-61
2022/10/06 04:39:56;;;;;;;1.30;0.40;;;20.00;67.70;;;;;;4996027;28;20478;-61
2022/10/06 04:42:22;;;;;;;3.17;0.50;;;20.00;67.70;;;;;;4996416;28;20402;-61
2022/10/06 04:44:47;;;;;;;1.95;0.38;;;20.00;67.70;;;;;;4996598;28;20068;-61
2022/10/06 04:47:13;;;;;;;0.63;0.28;;;20.00;67.70;;;;;;4994785;28;20057;-62
2022/10/06 04:49:38;;;;;;;1.67;0.38;;;20.00;68.30;;;;;;4996055;28;20043;-61
2022/10/06 04:52:04;;;;;;;1.55;0.38;;;20.00;67.60;;;;;;4995399;28;20042;-62
2022/10/06 04:54:29;;;;;;;1.27;0.40;;;20.00;67.70;;;;;;4995796;28;20049;-62
2022/10/06 04:56:56;;;;;;;1.52;0.40;;;20.00;67.70;;;;;;4996526;28;20046;-62
2022/10/06 05:00:21;;;;;;;1.73;0.50;;;20.00;67.70;;;;;;4995513;28;20038;-62
2022/10/06 05:02:07;;;;;;;0.95;0.20;;;20.00;67.60;;;;;;4995699;28;20451;-62
2022/10/06 05:04:33;;;;;;;2.35;0.50;;;20.00;67.70;;;;;;4996272;28;20078;-62
2022/10/06 05:06:58;;;;;;;1.95;0.30;;;20.00;67.70;;;;;;4995488;28;20042;-62
2022/10/06 05:09:24;;;;;;;1.95;0.40;;;20.00;67.70;;;;;;4995906;28;20047;-62
2022/10/06 05:11:49;;;;;;;2.45;0.40;;;20.00;67.70;;;;;;4996153;28;20078;-62
2022/10/06 05:14:15;;;;;;;1.95;0.50;;;20.00;67.70;;;;;;4995050;28;20049;-61
2022/10/06 05:16:41;;;;;;;1.52;0.40;;;20.00;67.70;;;;;;4996042;28;20050;-62
2022/10/06 05:19:07;;;;;;;1.50;0.40;;;20.00;67.70;;;;;;4995563;28;20053;-62
2022/10/06 05:21:33;;;;;;;1.80;0.70;;;20.00;67.70;;;;;;4995236;28;20043;-62
2022/10/06 05:23:58;;;;;;;1.75;0.40;;;20.00;67.70;;;;;;4995822;28;20038;-62
2022/10/06 05:26:26;;;;;;;1.85;0.38;;;20.10;67.70;;;;;;4995745;28;20050;-61
2022/10/06 05:28:52;;;;;;;1.15;0.30;;;20.10;67.70;;;;;;4995054;28;20086;-62
2022/10/06 05:31:21;;;;;;;2.58;0.50;;;20.10;67.70;;;;;;4977910;28;20497;-62
2022/10/06 05:33:47;;;;;;;1.58;0.43;;;20.10;67.60;;;;;;4995657;28;20046;-62
2022/10/06 05:36:14;;;;;;;1.83;0.50;;;20.10;67.60;;;;;;4994746;28;20046;-62
2022/10/06 05:38:40;;;;;;;2.80;0.50;;;20.10;67.60;;;;;;4994491;28;20045;-62
2022/10/06 05:41:13;;;;;;;2.55;0.38;;;20.10;67.60;;;;;;4995557;28;20050;-62
2022/10/06 05:43:39;;;;;;;3.10;0.60;;;20.10;67.60;;;;;;4995707;28;20042;-62
2022/10/06 05:46:06;;;;;;;1.90;0.40;;;20.10;67.60;;;;;;4995427;28;20053;-62
2022/10/06 05:48:32;;;;;;;1.98;0.55;;;20.20;67.60;;;;;;4994382;28;20644;-61
2022/10/06 05:51:05;;;;;;;2.28;0.30;;;20.20;67.50;;;;;;4995109;28;20149;-62
2022/10/06 05:53:32;;;;;;;3.47;0.50;;;20.20;67.50;;;;;;4994618;28;20062;-62
2022/10/06 05:56:08;;;;;;;0.82;0.30;;;20.20;67.50;;;;;;4994558;28;20051;-62
2022/10/06 05:58:35;;;;;;;1.30;0.30;;;20.20;67.50;;;;;;4995391;28;20117;-62
2022/10/06 06:01:11;;;;;;;2.00;0.40;;;20.20;67.50;;;;;;4995431;28;20073;-62
2022/10/06 06:03:37;;;;;;;1.42;0.40;;;20.20;67.50;;;;;;4994523;28;20108;-62
2022/10/06 06:06:03;;;;;;;1.83;0.43;;;20.20;67.50;;;;;;4995044;28;20490;-61
2022/10/06 06:08:29;;;;;;;2.38;0.40;;;20.20;67.40;;;;;;4994783;28;20166;-61
2022/10/06 06:10:54;;;;;;;2.58;0.50;;;20.20;67.50;;;;;;4994155;28;20052;-63
2022/10/06 06:13:23;;;;;;;1.75;0.40;;;20.20;67.50;;;;;;4994740;28;20042;-62
2022/10/06 06:16:00;;;;;;;;;;;20.20;67.40;;;;;;4995176;28;20042;-62
2022/10/06 06:18:27;;;;;;;2.28;0.60;;;20.20;67.40;;;;;;4993880;28;19948;-62
2022/10/06 06:21:02;;;;;;;6.72;0.50;;;20.20;67.40;;;;;;4994969;28;20042;-62
2022/10/06 06:23:36;;;;;;;4.18;0.60;;;20.20;67.60;;;;;;4993415;28;20529;-62
2022/10/06 06:26:04;;;;;;;3.33;0.63;;;20.20;67.80;;;;;;4994579;28;20125;-62
2022/10/06 06:28:30;;;;;;;3.45;0.70;;;20.20;67.70;;;;;;4994494;28;20050;-62
2022/10/06 06:31:07;;;;;;;2.88;0.77;;;20.20;67.80;;;;;;4993623;28;20049;-62
2022/10/06 06:33:36;;;;;;;3.67;0.55;;;20.30;68.00;;;;;;4977276;28;20046;-62
2022/10/06 06:36:30;;;;;;;4.32;0.75;;;20.30;67.90;;;;;;4994583;28;20041;-62
2022/10/06 06:38:57;;;;;;;4.72;0.70;;;20.20;68.00;;;;;;4993819;28;20491;-62
2022/10/06 06:41:27;;;;;;;6.28;0.70;;;20.20;68.60;;;;;;4993504;28;20050;-62
2022/10/06 06:43:52;;;;;;;6.43;0.75;;;20.30;68.00;;;;;;4994127;28;20046;-62
2022/10/06 06:46:23;;;;;;;2.97;0.50;;;20.30;68.00;;;;;;4975587;28;20129;-62
2022/10/06 06:48:50;;;;;;;3.00;0.50;;;20.30;68.00;;;;;;4993760;28;20403;-62
2022/10/06 06:51:15;;;;;;;6.07;1.02;;;20.30;68.10;;;;;;4976106;28;20050;-62
2022/10/06 06:53:41;;;;;;;5.32;0.57;;;20.30;68.10;;;;;;4993479;28;20050;-61
2022/10/06 06:56:07;;;;;;;3.35;0.77;;;20.30;68.10;;;;;;4993638;28;20054;-61
2022/10/06 06:58:33;;;;;;;4.70;0.68;;;20.30;68.10;;;;;;4993382;28;20075;-62
2022/10/06 07:01:12;;;;;;;2.30;0.50;;;20.30;68.00;;;;;;4994259;28;20084;-61
2022/10/06 07:03:58;;;;;;;4.05;0.55;;;20.30;68.10;;;;;;4994392;28;20093;-61
2022/10/06 07:06:26;;;;;;;2.58;0.82;;;20.30;68.20;;;;;;4992010;28;20086;-61
2022/10/06 07:08:52;;;;;;;1.95;0.43;;;20.30;68.20;;;;;;4993604;28;20129;-61
2022/10/06 07:11:23;;;;;;;3.70;0.55;;;20.30;68.30;;;;;;4993498;28;20129;-61
2022/10/06 07:13:53;;;;;;;4.70;0.57;;;20.30;68.30;;;;;;4992844;28;20061;-61
2022/10/06 07:27:18;;;;;;;3.38;0.60;;;20.40;68.40;;;;;;4991557;28;20042;-61
2022/10/06 07:29:45;;;;;;;4.82;0.63;;;20.40;68.40;;;;;;4993427;28;20402;-62
2022/10/06 07:32:11;;;;;;;2.90;0.60;;;20.40;68.30;;;;;;4993085;28;20133;-62
2022/10/06 07:34:38;;;;;;;3.40;0.60;;;20.50;68.40;;;;;;4992779;28;20045;-62
2022/10/06 07:37:03;;;;;;;3.90;0.60;;;20.40;68.40;;;;;;4993381;28;20490;-64
2022/10/06 07:39:30;;;;;;;3.60;0.55;;;20.50;68.40;;;;;;4993225;28;20050;-63
2022/10/06 07:41:56;;;;;;;4.70;0.60;;;20.50;68.30;;;;;;4992651;28;20054;-62
2022/10/06 07:44:22;;;;;;;2.95;0.52;;;20.50;68.30;;;;;;4993289;28;20150;-61
2022/10/06 07:46:47;;;;;;;5.53;0.45;;;20.50;68.30;;;;;;4993418;28;20386;-62
2022/10/06 07:49:16;;;;;;;2.97;0.60;;;20.50;68.10;;;;;;4991918;28;20090;-61
2022/10/06 07:51:43;;;;;;;5.32;0.77;;;20.60;68.10;;;;;;4992956;28;20058;-61
2022/10/06 07:54:09;;;;;;;5.18;0.68;;;20.60;68.10;;;;;;4991267;28;20430;-61
2022/10/06 07:56:34;;;;;;;4.50;0.70;;;20.60;68.10;;;;;;4991678;28;20052;-61
2022/10/06 07:59:00;;;;;;;3.78;0.70;;;20.70;68.00;;;;;;4993302;28;20129;-61
2022/10/06 08:01:28;;;;;;;2.88;0.38;;;20.60;68.00;;;;;;4993008;28;20575;-61
2022/10/06 08:03:53;;;;;;;2.42;0.60;;;20.70;68.10;;;;;;4997288;28;20486;-61
2022/10/06 08:06:19;;;;;;;4.35;0.60;;;20.70;68.10;;;;;;4999073;28;20046;-61
2022/10/06 08:08:46;;;;;;;5.65;0.60;;;20.70;68.10;;;;;;4971667;28;20070;-61
2022/10/06 08:11:11;;;;;;;3.30;0.70;;;20.80;68.10;;;;;;4994913;28;20081;-61
2022/10/06 08:13:41;;;;;;;3.63;0.70;;;20.70;68.00;;;;;;4999511;28;20151;-61
2022/10/06 08:16:18;;;;;;;3.53;0.63;;;20.80;68.10;;;;;;4998191;28;20474;-61
2022/10/06 08:18:52;;;;;;;3.53;0.52;;;20.80;68.00;;;;;;4999366;28;20116;-61
2022/10/06 08:21:22;;;;;;;2.75;0.40;;;20.80;67.90;;;;;;4999358;28;20513;-61
2022/10/06 08:23:48;;;;;;;5.05;0.65;;;20.80;67.80;;;;;;4998800;28;20042;-61
2022/10/06 08:26:14;;;;;;;4.20;0.50;;;20.80;67.70;;;;;;4999292;28;20113;-60
2022/10/06 08:28:43;;;;;;;4.82;0.60;;;20.80;67.60;;;;;;4999132;28;20050;-61
2022/10/06 08:31:11;;;;;;;3.30;0.52;;;20.90;67.60;;;;;;4998394;28;20500;-61
2022/10/06 08:33:37;;;;;;;;;;;20.90;67.50;;;;;;4999415;28;20042;-61
2022/10/06 08:36:07;;;;;;;4.85;1.17;;;20.90;67.50;;;;;;4999272;28;20403;-61
2022/10/06 08:38:35;;;;;;;3.08;0.40;;;20.90;67.60;;;;;;4998474;28;20054;-61
2022/10/06 08:41:00;;;;;;;3.08;0.70;;;20.90;68.20;;;;;;4999368;28;20038;-61
2022/10/06 08:43:26;;;;;;;3.50;0.82;;;20.90;67.60;;;;;;4981692;28;20851;-61
2022/10/06 08:45:53;;;;;;;5.85;0.60;;;21.00;67.70;;;;;;4998329;28;20554;-62
2022/10/06 08:48:23;;;;;;;4.45;1.00;;;21.00;67.70;;;;;;4978386;28;20125;-61
2022/10/06 08:50:59;;;;;;;3.28;0.60;;;21.00;67.70;;;;;;4978785;28;20050;-62
2022/10/06 08:53:37;;;;;;;2.63;0.52;;;21.00;67.70;;;;;;4977345;28;20487;-61
2022/10/06 08:56:16;;;;;;;3.13;0.57;;;21.00;67.70;;;;;;4978670;28;20090;-62
2022/10/06 08:59:02;;;;;;;4.85;0.60;;;21.00;67.70;;;;;;4978572;28;20487;-61
2022/10/06 09:01:32;;;;;;;4.22;0.60;;;21.00;67.70;;;;;;4978467;28;20046;-61
2022/10/06 09:04:00;;;;;;;3.85;0.80;;;21.10;67.70;;;;;;4978664;28;20047;-62
2022/10/06 09:06:44;;;;;;;3.38;0.70;;;21.10;67.60;;;;;;4978476;28;20086;-60
2022/10/06 09:09:30;;;;;;;4.72;0.93;;;21.10;67.60;;;;;;4979094;28;20106;-61
2022/10/06 09:12:23;;;;;;;4.60;0.70;;;21.10;67.60;;;;;;4979684;28;20046;-61
2022/10/06 09:14:56;;;;;;;4.47;0.60;;;21.10;67.60;;;;;;4975677;28;20054;-60
2022/10/06 09:17:59;;;;;;;5.57;0.70;;;21.10;67.60;;;;;;4974690;28;20514;-60
2022/10/06 09:20:35;;;;;;;3.22;0.70;;;21.10;67.70;;;;;;4964237;28;20158;-61
2022/10/06 09:23:02;;;;;;;2.22;0.40;;;21.20;67.70;;;;;;4975485;28;20057;-60
2022/10/06 09:25:28;;;;;;;5.30;0.60;;;21.20;67.70;;;;;;4973987;28;20051;-61
2022/10/06 09:27:55;;;;;;;3.53;0.63;;;21.20;67.70;;;;;;4973489;28;20031;-61
2022/10/06 09:30:20;;;;;;;2.50;0.50;;;21.20;67.70;;;;;;4975958;28;20108;-61
2022/10/06 09:32:50;;;;;;;6.00;0.60;;;21.20;67.60;;;;;;4975976;28;20509;-61
2022/10/06 09:35:20;;;;;;;3.67;0.50;;;21.20;67.70;;;;;;4974019;28;20043;-61
2022/10/06 09:38:03;;;;;;;3.22;0.55;;;21.20;67.60;;;;;;4976160;28;20058;-61
2022/10/06 09:40:40;;;;;;;3.63;0.60;;;21.20;67.60;;;;;;4973955;28;20050;-61
2022/10/06 09:43:24;;;;;;;3.28;0.93;;;21.20;67.60;;;;;;4972746;28;20050;-61
2022/10/06 09:45:50;;;;;;;4.28;0.50;;;21.30;67.50;;;;;;4976041;28;20049;-61
2022/10/06 09:48:25;;;;;;;5.65;0.95;;;21.30;67.40;;;;;;4986622;28;20092;-60
2022/10/06 09:51:09;;;;;;;4.07;0.68;;;21.30;67.20;;;;;;4994900;28;20096;-61
2022/10/06 09:53:37;;;;;;;3.35;0.60;;;21.30;67.30;;;;;;4994707;28;20121;-61
2022/10/06 09:56:03;;;;;;;;;;;21.20;67.30;;;;;;4994567;28;20047;-62
2022/10/06 09:58:36;;;;;;;4.00;0.60;;;21.20;67.40;;;;;;4977700;28;20012;-61
2022/10/06 10:01:04;;;;;;;3.47;0.50;;;21.20;67.40;;;;;;4995149;28;20133;-63
2022/10/06 10:03:50;;;;;;;;;;;21.20;67.40;;;;;;4960896;28;20046;-61
2022/10/06 10:06:29;;;;;;;4.25;0.75;;;21.20;67.30;;;;;;4994641;28;19922;-62
2022/10/06 10:09:13;;;;;;;6.60;1.25;;;21.20;67.20;;;;;;4993955;28;20097;-61
2022/10/06 10:14:22;;;;;;;7.28;1.48;;;21.20;67.20;;;;;;4994324;28;20050;-62
2022/10/06 10:16:48;;;;;;;7.97;1.27;;;21.20;67.30;;;;;;4993938;28;20038;-61
2022/10/06 10:19:31;;;;;;;4.43;1.25;;;21.20;67.40;;;;;;4994145;28;20399;-61
2022/10/06 10:21:58;;;;;;;6.47;0.85;;;21.20;67.40;;;;;;4977783;28;20034;-62
2022/10/06 10:25:03;;;;;;;5.97;0.98;;;21.20;67.30;;;;;;4976109;28;20046;-62
2022/10/06 10:28:03;;;;;;;6.07;1.30;;;21.20;67.10;;;;;;4994155;28;20057;-62
2022/10/06 10:30:35;;;;;;;8.10;1.17;;;21.10;67.10;;;;;;4970404;28;20441;-62
2022/10/06 10:33:14;;;;;;;5.40;0.90;;;21.10;67.00;;;;;;4977499;28;20077;-62
2022/10/06 10:35:47;;;;;;;6.43;0.90;;;21.10;66.70;;;;;;4961138;28;20046;-62
2022/10/06 10:38:19;;;;;;;6.22;0.82;;;21.10;66.60;;;;;;4975828;28;20038;-61
2022/10/06 10:40:47;;;;;;;6.82;1.00;;;21.10;66.50;;;;;;4976693;28;20133;-62
2022/10/06 10:43:16;;;;;;;5.18;0.80;;;21.10;66.40;;;;;;4976322;28;20434;-61
2022/10/06 10:46:09;;;;;;;8.00;2.00;;;21.10;66.40;;;;;;4993054;28;20137;-61
2022/10/06 10:48:54;;;;;;;6.03;1.00;;;21.10;66.30;;;;;;4974704;28;20054;-61
2022/10/06 10:51:27;;;;;;;6.80;1.00;;;21.10;66.30;;;;;;4975797;28;20402;-61
2022/10/06 10:54:07;;;;;;;3.60;0.75;;;21.10;66.20;;;;;;4993959;28;20050;-61
2022/10/06 10:56:33;;;;;;;4.78;0.82;;;21.10;66.10;;;;;;4977148;28;20052;-61
2022/10/06 10:59:10;;;;;;;3.10;0.70;;;21.10;66.20;;;;;;4993457;28;20042;-61
2022/10/06 11:01:51;;;;;;;8.90;2.05;;;21.00;66.10;;;;;;4975879;28;20121;-61
2022/10/06 11:04:16;;;;;;;6.18;1.00;;;21.00;66.10;;;;;;4993329;28;20398;-61
2022/10/06 11:06:45;;;;;;;7.18;1.35;;;21.00;66.20;;;;;;4993388;28;20515;-61
2022/10/06 11:09:25;;;;;;;8.52;1.75;;;21.00;66.20;;;;;;4993614;28;20117;-60
2022/10/06 11:12:10;;;;;;;8.82;1.38;;;21.00;66.20;;;;;;4976571;28;20039;-61
2022/10/06 11:14:54;;;;;;;10.30;2.13;;;21.00;66.30;;;;;;4976496;28;20490;-61
2022/10/06 11:17:26;;;;;;;8.25;1.63;;;21.00;66.30;;;;;;4993692;28;20050;-61
2022/10/06 11:19:56;;;;;;;10.38;1.90;;;21.00;66.30;;;;;;4976346;28;20093;-61
2022/10/06 11:22:41;;;;;;;8.05;1.70;;;21.00;66.30;;;;;;4993622;28;20129;-61
2022/10/06 11:25:35;;;;;;;6.18;1.92;;;21.00;66.20;;;;;;4976332;28;20042;-61
2022/10/06 11:28:16;;;;;;;8.52;2.25;;;21.00;66.20;;;;;;4978528;28;20050;-61
2022/10/06 11:30:50;;;;;;;8.57;1.60;;;21.00;66.20;;;;;;4976267;28;20490;-61
2022/10/06 11:33:19;;;;;;;7.68;1.50;;;21.00;66.10;;;;;;4992818;28;20112;-61
2022/10/06 11:35:45;;;;;;;8.77;1.40;;;21.00;66.10;;;;;;4976114;28;20486;-61
2022/10/06 11:38:29;;;;;;;8.65;1.67;;;21.00;66.00;;;;;;4974677;28;20042;-62
2022/10/06 11:41:12;;;;;;;9.75;1.40;;;21.00;65.70;;;;;;4975852;28;20074;-62
2022/10/06 11:44:15;;;;;;;6.93;1.95;;;21.00;65.70;;;;;;4993717;28;20065;-63
2022/10/06 11:46:51;;;;;;;9.52;1.63;;;21.00;65.40;;;;;;4976373;28;20046;-62
2022/10/06 11:49:31;;;;;;;6.97;1.40;;;21.00;65.40;;;;;;4992879;28;20051;-62
2022/10/06 11:52:06;;;;;;;8.27;1.40;;;21.00;65.40;;;;;;4993639;28;20054;-62
2022/10/06 11:54:46;;;;;;;8.52;1.52;;;21.00;65.30;;;;;;4992619;28;20054;-62
2022/10/06 11:57:21;;;;;;;5.47;1.50;;;21.00;65.20;;;;;;4992849;28;20088;-63
2022/10/06 11:59:53;;;;;;;9.32;1.58;;;21.00;65.20;;;;;;4993436;28;20121;-64
2022/10/06 12:02:31;;;;;;;8.38;1.58;;;21.00;65.80;;;;;;4992229;28;20043;-62
2022/10/06 12:05:09;;;;;;;8.95;1.58;;;21.00;65.10;;;;;;4993416;28;20046;-61
2022/10/06 12:07:58;;;;;;;8.30;1.55;;;21.00;65.10;;;;;;4993651;28;20046;-62
2022/10/06 12:10:31;;;;;;;8.82;1.52;;;21.00;65.10;;;;;;4992060;28;20039;-62
2022/10/06 12:13:25;;;;;;;6.03;1.23;;;21.00;65.10;;;;;;4993249;28;20054;-62
2022/10/06 12:15:53;;;;;;;4.78;1.17;;;21.00;65.10;;;;;;4975083;28;20047;-61
2022/10/06 12:18:40;;;;;;;6.88;1.23;;;21.00;65.10;;;;;;4992852;28;20039;-61
2022/10/06 12:21:33;;;;;;;4.97;1.10;;;21.10;65.10;;;;;;4992780;28;20457;-61
2022/10/06 12:24:16;;;;;;;6.50;1.25;;;21.00;65.00;;;;;;4976379;28;20043;-62
2022/10/06 12:26:55;;;;;;;8.10;1.63;;;21.00;65.00;;;;;;4975610;28;20561;-61
2022/10/06 12:29:45;;;;;;;6.97;1.33;;;21.00;64.90;;;;;;4976118;28;20042;-62
2022/10/06 12:32:23;;;;;;;5.05;1.15;;;21.10;64.90;;;;;;4992923;28;20112;-61
2022/10/06 12:34:57;;;;;;;8.88;1.60;;;21.10;65.50;;;;;;4992947;28;20132;-62
2022/10/06 12:37:31;;;;;;;6.68;1.40;;;21.10;64.90;;;;;;4974878;28;20053;-61
2022/10/06 12:40:35;;;;;;;5.22;1.30;;;21.00;64.80;;;;;;4993028;28;20057;-62
2022/10/06 12:43:21;;;;;;;5.00;0.95;;;21.10;64.80;;;;;;4992691;28;20402;-62
2022/10/06 12:46:17;;;;;;;6.57;1.38;;;21.10;64.70;;;;;;4976144;28;20046;-62
2022/10/06 12:49:03;;;;;;;4.80;1.20;;;21.10;64.70;;;;;;4994394;28;20050;-62
2022/10/06 12:51:41;;;;;;;4.25;0.98;;;21.10;64.70;;;;;;4980389;28;20489;-62
2022/10/06 12:54:14;;;;;;;;;;;21.10;64.70;;;;;;4979455;28;20049;-62
2022/10/06 12:56:40;;;;;;;4.50;1.10;;;21.10;64.70;;;;;;4996491;28;19953;-62
2022/10/06 12:59:33;;;;;;;4.97;0.90;;;21.10;64.70;;;;;;4995682;28;20049;-62
2022/10/06 13:02:00;;;;;;;4.70;1.23;;;21.10;64.60;;;;;;4988069;28;20050;-62
2022/10/06 13:04:58;;;;;;;3.35;0.80;;;21.20;64.50;;;;;;4995210;28;20056;-62
2022/10/06 13:07:26;;;;;;;5.50;1.20;;;21.20;64.40;;;;;;4996184;28;20042;-62
2022/10/06 13:10:13;;;;;;;4.65;1.00;;;21.20;64.40;;;;;;4996003;28;20397;-62
2022/10/06 13:12:40;;;;;;;6.30;1.00;;;21.20;64.40;;;;;;4981542;28;20134;-62
2022/10/06 13:15:28;;;;;;;5.82;0.90;;;21.20;64.30;;;;;;4996304;28;20042;-62
2022/10/06 13:18:06;;;;;;;4.80;1.02;;;21.30;64.20;;;;;;4996211;28;20136;-62
2022/10/06 13:20:55;;;;;;;7.50;0.98;;;21.30;64.20;;;;;;4995391;28;20133;-61
2022/10/06 13:23:25;;;;;;;4.13;0.95;;;21.40;64.00;;;;;;4978412;28;20050;-62